EST,Max TemperatureF,Mean TemperatureF,Min TemperatureF,Max Dew PointF,MeanDew PointF,Min DewpointF,Max Humidity, Mean Humidity, Min Humidity, Max Sea Level PressureIn, Mean Sea Level PressureIn, Min Sea Level PressureIn, Max VisibilityMiles, Mean VisibilityMiles, Min VisibilityMiles, Max Wind SpeedMPH, Mean Wind SpeedMPH, Max Gust SpeedMPH,PrecipitationIn, CloudCover, Events, WindDirDegrees
2011-11-1,66,52,39,46,41,36,100,73,34,30.32,30.26,30.19,10,9,5,13,5,18,0.00,0,,9
2011-11-2,68,52,37,50,41,36,100,72,37,30.42,30.35,30.29,10,9,5,10,2,,0.00,0,,48
2011-11-3,73,54,35,57,45,36,100,78,36,30.29,30.15,29.92,10,10,7,8,1,,0.00,1,,169
2011-11-4,68,60,51,64,54,48,100,88,67,30.01,29.81,29.72,10,9,2,21,9,30,0.11,8,,293
2011-11-5,60,52,44,48,40,34,87,64,48,30.34,30.21,30.03,10,10,10,17,10,26,0.00,0,,16
2011-11-6,71,56,42,55,46,41,100,74,50,30.43,30.37,30.33,10,10,7,10,5,17,0.00,4,,28
2011-11-7,77,64,50,55,53,50,100,79,41,30.37,30.31,30.25,10,10,10,8,4,,0.00,0,,30
2011-11-8,75,62,50,59,53,50,100,81,47,30.27,30.21,30.16,10,10,7,8,2,,0.00,0,,24
2011-11-9,75,60,44,57,51,45,100,82,47,30.16,30.09,29.99,10,9,5,7,1,,0.00,0,,355
2011-11-10,69,56,42,61,52,43,100,84,53,29.97,29.89,29.80,10,10,7,9,1,,0.00,5,,300
2011-11-11,59,46,33,43,30,21,93,57,23,30.23,30.13,29.99,10,10,10,13,4,17,0.00,0,,325
2011-11-12,66,49,32,43,32,27,100,67,24,30.36,30.30,30.25,10,9,4,8,1,,0.00,0,,193
2011-11-13,71,55,39,55,48,37,100,78,53,30.32,30.25,30.16,10,10,7,8,1,,0.00,0,,185
2011-11-14,80,65,50,61,55,41,100,74,24,30.20,30.13,30.05,10,9,5,10,3,16,0.00,0,,185
2011-11-15,78,68,59,70,65,52,100,88,41,30.10,30.03,29.97,10,8,0,8,4,,0.00,3,,188
2011-11-16,82,76,69,70,69,64,100,85,58,29.99,29.92,29.82,10,10,7,16,6,23,0.00,5,,195
2011-11-17,73,62,50,68,58,36,94,80,45,30.31,29.97,29.83,10,10,4,17,8,29,0.05,7,,282
2011-11-18,55,44,32,34,29,21,100,67,26,30.50,30.44,30.34,10,9,7,12,2,16,0.00,0,,42
2011-11-19,68,50,33,54,41,30,100,74,55,30.45,30.38,30.33,10,10,5,7,3,,0.00,3,,30
2011-11-20,77,62,48,64,53,19,100,77,12,30.37,30.32,30.28,10,9,4,6,0,,0.00,3,,201
2011-11-21,80,68,57,64,61,52,100,82,54,30.30,30.23,30.17,10,8,4,9,1,16,0.00,2,,238
2011-11-22,80,68,55,66,61,52,100,82,54,30.22,30.14,30.04,10,9,5,9,2,,0.00,1,,186
2011-11-23,75,67,55,70,58,41,100,68,36,30.12,29.93,29.87,10,10,10,16,10,25,0.00,5,,259
2011-11-24,66,54,39,41,36,32,87,59,28,30.37,30.29,30.18,10,9,5,13,4,17,0.00,0,,360
2011-11-25,68,50,32,43,35,32,100,70,26,30.42,30.35,30.29,10,9,7,6,0,,0.00,0,,193
2011-11-26,73,55,37,55,47,37,100,77,47,30.37,30.31,30.26,10,10,10,7,1,,0.00,5,,169
2011-11-27,78,66,55,63,58,54,100,74,44,30.24,30.15,30.04,10,10,7,9,2,18,0.00,8,,159
2011-11-28,80,66,51,68,61,52,100,83,54,30.02,29.91,29.80,10,9,4,14,5,25,0.47,7,,163
2011-11-29,55,48,42,50,42,36,100,79,51,29.97,29.91,29.85,10,10,10,15,5,21,0.16,6,,233
2011-11-30,59,48,37,45,38,36,100,77,45,30.09,30.01,29.96,10,10,10,8,4,,0.00,0,,272